createdAt,value
2019-02-05T00:00:53.372Z,0.00
2019-02-05T00:01:53.352Z,0.00
2019-02-05T00:02:53.325Z,0.00
2019-02-05T00:03:53.309Z,0.00
2019-02-05T00:04:53.315Z,0.00
2019-02-05T00:05:53.261Z,0.00
2019-02-05T00:06:53.232Z,0.00
2019-02-05T00:07:53.213Z,0.00
2019-02-05T00:08:53.190Z,0.00
2019-02-05T00:09:53.188Z,0.00
2019-02-05T00:10:53.175Z,0.00
2019-02-05T00:11:53.140Z,0.00
2019-02-05T00:12:53.102Z,0.00
2019-02-05T00:13:53.081Z,0.00
2019-02-05T00:14:53.078Z,0.00
2019-02-05T00:15:53.139Z,0.00
2019-02-05T00:16:53.051Z,0.00
2019-02-05T00:17:53.000Z,0.00
2019-02-05T00:18:52.968Z,0.00
2019-02-05T00:19:52.942Z,0.00
2019-02-05T00:20:52.923Z,0.00
2019-02-05T00:21:52.898Z,0.00
2019-02-05T00:22:52.897Z,0.00
2019-02-05T00:23:52.862Z,0.00
2019-02-05T00:24:52.838Z,0.00
2019-02-05T00:25:52.810Z,0.00
2019-02-05T00:26:52.801Z,0.00
2019-02-05T00:27:52.812Z,0.00
2019-02-05T00:28:52.743Z,0.00
2019-02-05T00:29:52.723Z,0.00
2019-02-05T00:30:52.699Z,0.00
2019-02-05T00:31:52.677Z,0.00
2019-02-05T00:32:52.681Z,0.00
2019-02-05T00:33:52.627Z,0.00
2019-02-05T00:34:52.716Z,0.00
2019-02-05T00:35:52.586Z,0.00
2019-02-05T00:36:52.565Z,0.00
2019-02-05T00:37:52.553Z,0.00
2019-02-05T00:38:52.535Z,0.00
2019-02-05T00:39:52.497Z,0.00
2019-02-05T00:40:52.474Z,0.00
2019-02-05T00:41:52.449Z,0.00
2019-02-05T00:42:52.431Z,0.00
2019-02-05T00:43:52.429Z,0.00
2019-02-05T00:44:52.382Z,0.00
2019-02-05T00:45:52.363Z,0.00
2019-02-05T00:46:52.334Z,0.00
2019-02-05T00:47:52.323Z,0.00
2019-02-05T00:48:52.313Z,0.00
2019-02-05T00:49:52.300Z,0.00
2019-02-05T00:50:52.251Z,0.00
2019-02-05T00:51:52.226Z,0.00
2019-02-05T00:52:52.203Z,0.00
2019-02-05T00:53:52.186Z,0.00
2019-02-05T00:54:52.167Z,0.00
2019-02-05T00:55:52.153Z,0.00
2019-02-05T00:56:52.117Z,0.00
2019-02-05T00:57:52.094Z,0.00
2019-02-05T00:58:52.080Z,0.00
2019-02-05T00:59:52.048Z,0.00
2019-02-05T01:00:52.040Z,0.00
2019-02-05T01:01:52.021Z,0.00
2019-02-05T01:02:52.002Z,0.00
2019-02-05T01:03:51.981Z,0.00
2019-02-05T01:04:51.938Z,0.00
2019-02-05T01:05:51.947Z,0.00
2019-02-05T01:06:53.765Z,0.00
2019-02-05T01:07:51.871Z,0.00
2019-02-05T01:08:51.846Z,0.00
2019-02-05T01:09:51.825Z,0.00
2019-02-05T01:10:51.800Z,0.00
2019-02-05T01:11:51.800Z,0.00
2019-02-05T01:12:53.766Z,0.00
2019-02-05T01:13:51.732Z,0.00
2019-02-05T01:14:51.710Z,0.00
2019-02-05T01:15:51.691Z,0.00
2019-02-05T01:16:51.664Z,0.00
2019-02-05T01:17:51.667Z,0.00
2019-02-05T01:18:51.631Z,0.00
2019-02-05T01:19:51.599Z,0.00
2019-02-05T01:20:51.578Z,0.00
2019-02-05T01:21:51.553Z,0.00
2019-02-05T01:22:51.564Z,0.00
2019-02-05T01:23:51.507Z,0.00
2019-02-05T01:24:51.482Z,0.00
2019-02-05T01:25:51.463Z,0.00
2019-02-05T01:26:51.450Z,0.00
2019-02-05T01:27:51.422Z,0.00
2019-02-05T01:28:51.412Z,0.00
2019-02-05T01:29:51.375Z,0.00
2019-02-05T01:30:51.368Z,0.00
2019-02-05T01:31:51.326Z,0.00
2019-02-05T01:32:51.327Z,0.00
2019-02-05T01:33:51.300Z,0.00
2019-02-05T01:34:51.267Z,0.00
2019-02-05T01:35:51.240Z,0.00
2019-02-05T01:36:51.219Z,0.00
2019-02-05T01:37:51.191Z,0.00
2019-02-05T01:38:51.175Z,0.00
2019-02-05T01:39:51.167Z,0.00
2019-02-05T01:40:51.126Z,0.00
2019-02-05T01:41:51.108Z,0.00
2019-02-05T01:42:51.083Z,0.00
2019-02-05T01:43:51.095Z,0.00
2019-02-05T01:44:51.035Z,0.00
2019-02-05T01:45:51.014Z,0.00
2019-02-05T01:46:50.994Z,0.00
2019-02-05T01:47:50.970Z,0.00
2019-02-05T01:48:50.948Z,0.00
2019-02-05T01:49:50.943Z,0.00
2019-02-05T01:50:50.902Z,0.00
2019-02-05T01:51:50.880Z,0.00
2019-02-05T01:52:50.857Z,0.00
2019-02-05T01:53:50.863Z,0.00
2019-02-05T01:54:50.811Z,0.00
2019-02-05T01:55:50.826Z,0.00
2019-02-05T01:56:50.768Z,0.00
2019-02-05T01:57:50.745Z,0.00
2019-02-05T01:58:50.718Z,0.00
2019-02-05T01:59:50.699Z,0.00
2019-02-05T02:00:50.679Z,0.00
2019-02-05T02:01:50.674Z,0.00
2019-02-05T02:02:50.632Z,0.00
2019-02-05T02:03:50.610Z,0.00
2019-02-05T02:04:50.586Z,0.00
2019-02-05T02:05:50.579Z,0.00
2019-02-05T02:06:50.550Z,0.00
2019-02-05T02:07:50.518Z,0.00
2019-02-05T02:08:50.496Z,0.00
2019-02-05T02:09:50.482Z,0.00
2019-02-05T02:10:50.449Z,0.00
2019-02-05T02:11:50.446Z,0.00
2019-02-05T02:12:50.486Z,0.00
2019-02-05T02:13:50.385Z,0.00
2019-02-05T02:14:50.359Z,0.00
2019-02-05T02:15:50.360Z,0.00
2019-02-05T02:16:50.318Z,0.00
2019-02-05T02:17:50.291Z,0.00
2019-02-05T02:18:50.286Z,0.00
2019-02-05T02:19:50.263Z,0.00
2019-02-05T02:20:50.226Z,0.00
2019-02-05T02:21:50.202Z,0.00
2019-02-05T02:22:50.194Z,0.00
2019-02-05T02:23:50.178Z,0.00
2019-02-05T02:24:50.132Z,0.00
2019-02-05T02:25:50.110Z,0.00
2019-02-05T02:26:51.995Z,0.00
2019-02-05T02:27:50.864Z,0.00
2019-02-05T02:28:50.058Z,0.00
2019-02-05T02:29:50.021Z,0.00
2019-02-05T02:30:50.011Z,0.00
2019-02-05T02:31:50.775Z,0.00
2019-02-05T02:32:49.969Z,0.00
2019-02-05T02:33:49.931Z,0.00
2019-02-05T02:34:49.909Z,0.00
2019-02-05T02:35:49.886Z,0.00
2019-02-05T02:36:49.861Z,0.00
2019-02-05T02:37:49.848Z,0.00
2019-02-05T02:38:49.845Z,0.00
2019-02-05T02:39:49.792Z,0.00
2019-02-05T02:40:49.787Z,0.00
2019-02-05T02:41:49.770Z,0.00
2019-02-05T02:42:49.744Z,0.00
2019-02-05T02:43:49.703Z,0.00
2019-02-05T02:44:49.682Z,0.00
2019-02-05T02:45:49.658Z,0.00
2019-02-05T02:46:49.638Z,0.00
2019-02-05T02:47:49.662Z,0.00
2019-02-05T02:48:49.591Z,0.00
2019-02-05T02:49:49.570Z,0.00
2019-02-05T02:50:49.549Z,0.00
2019-02-05T02:51:49.589Z,0.00
2019-02-05T02:52:49.504Z,0.00
2019-02-05T02:53:49.497Z,0.00
2019-02-05T02:54:49.456Z,0.00
2019-02-05T02:55:49.429Z,0.00
2019-02-05T02:56:49.411Z,0.00
2019-02-05T02:57:49.401Z,0.00
2019-02-05T02:58:49.381Z,0.00
2019-02-05T02:59:49.367Z,0.00
2019-02-05T03:00:49.320Z,0.00
2019-02-05T03:01:49.297Z,0.00
2019-02-05T03:02:49.271Z,0.00
2019-02-05T03:03:49.266Z,0.00
2019-02-05T03:04:49.230Z,0.00
2019-02-05T03:05:49.223Z,0.00
2019-02-05T03:06:49.186Z,0.00
2019-02-05T03:07:49.161Z,0.00
2019-02-05T03:08:49.135Z,0.00
2019-02-05T03:09:49.112Z,0.00
2019-02-05T03:10:49.110Z,0.00
2019-02-05T03:11:49.071Z,0.00
2019-02-05T03:12:49.048Z,0.00
2019-02-05T03:13:49.029Z,0.00
2019-02-05T03:14:49.020Z,0.00
2019-02-05T03:15:49.008Z,0.00
2019-02-05T03:16:48.951Z,0.00
2019-02-05T03:17:48.929Z,0.00
2019-02-05T03:18:48.907Z,0.00
2019-02-05T03:19:48.889Z,0.00
2019-02-05T03:20:48.881Z,0.00
2019-02-05T03:21:48.843Z,0.00
2019-02-05T03:22:48.833Z,0.00
2019-02-05T03:23:48.794Z,0.00
2019-02-05T03:24:48.773Z,0.00
2019-02-05T03:25:48.771Z,0.00
2019-02-05T03:26:48.731Z,0.00
2019-02-05T03:27:48.721Z,0.00
2019-02-05T03:28:48.684Z,0.00
2019-02-05T03:29:48.665Z,0.00
2019-02-05T03:32:30.748Z,0.00
2019-02-05T03:33:30.726Z,0.00
2019-02-05T03:34:30.702Z,0.00
2019-02-05T03:35:30.695Z,0.00
2019-02-05T03:36:30.658Z,0.00
2019-02-05T03:37:33.386Z,0.00
2019-02-05T03:38:30.640Z,0.00
2019-02-05T03:39:30.589Z,0.00
2019-02-05T03:40:30.612Z,0.00
2019-02-05T03:41:30.545Z,0.00
2019-02-05T03:42:30.522Z,0.00
2019-02-05T03:43:30.504Z,0.00
2019-02-05T03:44:30.495Z,0.00
2019-02-05T03:45:30.488Z,0.00
2019-02-05T03:46:30.431Z,0.00
2019-02-05T03:47:30.408Z,0.00
2019-02-05T03:48:30.382Z,0.00
2019-02-05T03:49:30.376Z,0.00
2019-02-05T03:50:30.342Z,0.00
2019-02-05T03:51:30.337Z,0.00
2019-02-05T03:52:30.292Z,0.00
2019-02-05T03:53:30.275Z,0.00
2019-02-05T03:54:30.250Z,0.00
2019-02-05T03:55:30.235Z,0.00
2019-02-05T03:56:30.222Z,0.00
2019-02-05T03:57:31.049Z,0.00
2019-02-05T03:58:30.176Z,0.00
2019-02-05T03:59:30.137Z,0.00
2019-02-05T04:00:30.111Z,0.00
2019-02-05T04:01:30.101Z,0.00
2019-02-05T04:02:30.084Z,0.00
2019-02-05T04:03:30.047Z,0.00
2019-02-05T04:04:30.021Z,0.00
2019-02-05T04:05:32.443Z,0.00
2019-02-05T04:06:29.975Z,0.00
2019-02-05T04:07:29.972Z,0.00
2019-02-05T04:08:29.934Z,0.00
2019-02-05T04:09:29.912Z,0.00
2019-02-05T04:10:29.934Z,0.00
2019-02-05T04:11:29.867Z,0.00
2019-02-05T04:12:29.839Z,0.00
2019-02-05T04:13:29.817Z,0.00
2019-02-05T04:14:29.797Z,0.00
2019-02-05T04:15:29.778Z,0.00
2019-02-05T04:16:29.766Z,0.00
2019-02-05T04:17:29.730Z,0.00
2019-02-05T04:18:29.711Z,0.00
2019-02-05T04:19:29.714Z,0.00
2019-02-05T04:20:29.660Z,0.00
2019-02-05T04:21:29.642Z,0.00
2019-02-05T04:22:29.614Z,0.00
2019-02-05T04:23:29.593Z,0.00
2019-02-05T04:24:29.567Z,0.00
2019-02-05T04:25:29.580Z,0.00
2019-02-05T04:26:29.525Z,0.00
2019-02-05T04:27:29.507Z,0.00
2019-02-05T04:28:29.488Z,0.00
2019-02-05T04:29:29.468Z,0.00
2019-02-05T04:30:29.436Z,0.00
2019-02-05T04:31:29.435Z,0.00
2019-02-05T04:32:29.407Z,0.00
2019-02-05T04:33:29.368Z,0.00
2019-02-05T04:34:29.352Z,0.00
2019-02-05T04:35:29.325Z,0.00
2019-02-05T04:36:29.311Z,0.00
2019-02-05T04:37:29.292Z,0.00
2019-02-05T04:38:29.258Z,0.00
2019-02-05T04:39:29.232Z,0.00
2019-02-05T04:40:29.213Z,0.00
2019-02-05T04:41:29.210Z,0.00
2019-02-05T04:42:29.165Z,0.00
2019-02-05T04:43:29.145Z,0.00
2019-02-05T04:44:29.137Z,0.00
2019-02-05T04:45:34.277Z,0.00
2019-02-05T04:46:29.077Z,0.00
2019-02-05T04:47:29.055Z,0.00
2019-02-05T04:48:29.030Z,0.00
2019-02-05T04:49:29.009Z,0.00
2019-02-05T04:50:29.005Z,0.00
2019-02-05T04:51:28.979Z,0.00
2019-02-05T04:52:28.940Z,0.00
2019-02-05T04:53:28.923Z,0.00
2019-02-05T04:54:28.928Z,0.00
2019-02-05T04:55:28.880Z,0.00
2019-02-05T04:56:28.856Z,0.00
2019-02-05T04:57:28.825Z,0.00
2019-02-05T04:58:28.804Z,0.00
2019-02-05T04:59:28.785Z,0.00
2019-02-05T05:00:28.783Z,0.00
2019-02-05T05:01:28.752Z,0.00
2019-02-05T05:02:28.715Z,0.00
2019-02-05T05:03:28.693Z,0.00
2019-02-05T05:04:28.671Z,0.00
2019-02-05T05:05:28.661Z,0.00
2019-02-05T05:06:28.622Z,0.00
2019-02-05T05:07:28.607Z,0.00
2019-02-05T05:08:28.579Z,0.00
2019-02-05T05:09:28.557Z,0.00
2019-02-05T05:10:28.540Z,0.00
2019-02-05T05:11:28.532Z,0.00
2019-02-05T05:12:28.589Z,0.00
2019-02-05T05:13:28.488Z,0.00
2019-02-05T05:14:28.444Z,0.00
2019-02-05T05:15:28.419Z,0.00
2019-02-05T05:16:28.396Z,0.00
2019-02-05T05:17:28.393Z,0.00
2019-02-05T05:18:28.366Z,0.00
2019-02-05T05:19:28.329Z,0.00
2019-02-05T05:20:28.308Z,0.00
2019-02-05T05:21:28.286Z,0.00
2019-02-05T05:22:28.270Z,0.00
2019-02-05T05:23:28.252Z,0.00
2019-02-05T05:24:28.217Z,0.00
2019-02-05T05:25:28.195Z,0.00
2019-02-05T05:26:28.182Z,0.00
2019-02-05T05:27:28.150Z,0.00
2019-02-05T05:28:28.144Z,0.00
2019-02-05T05:29:28.126Z,0.00
2019-02-05T05:30:28.088Z,0.00
2019-02-05T05:31:28.059Z,0.00
2019-02-05T05:32:28.048Z,0.00
2019-02-05T05:33:28.014Z,0.00
2019-02-05T05:34:27.996Z,0.00
2019-02-05T05:35:40.226Z,0.00
2019-02-05T05:36:28.793Z,0.00
2019-02-05T05:37:27.920Z,0.00
2019-02-05T05:38:27.904Z,0.00
2019-02-05T05:39:27.883Z,0.00
2019-02-05T05:40:27.888Z,0.00
2019-02-05T05:41:27.831Z,0.00
2019-02-05T05:42:27.817Z,0.00
2019-02-05T05:43:27.788Z,0.00
2019-02-05T05:44:27.761Z,0.00
2019-02-05T05:45:27.741Z,0.00
2019-02-05T05:46:27.733Z,0.00
2019-02-05T05:47:27.695Z,0.00
2019-02-05T05:48:27.674Z,0.00
2019-02-05T05:49:27.655Z,0.00
2019-02-05T05:50:27.637Z,0.00
2019-02-05T05:51:27.787Z,0.00
2019-02-05T05:52:27.606Z,0.00
2019-02-05T05:53:27.566Z,0.00
2019-02-05T05:54:27.551Z,0.00
2019-02-05T05:55:27.517Z,0.00
2019-02-05T05:56:27.502Z,0.00
2019-02-05T05:57:27.482Z,0.00
2019-02-05T05:58:27.482Z,0.00
2019-02-05T05:59:27.423Z,0.00
2019-02-05T06:00:27.406Z,0.00
2019-02-05T06:01:27.390Z,0.00
2019-02-05T06:02:27.355Z,0.00
2019-02-05T06:03:27.331Z,0.00
2019-02-05T06:04:27.332Z,0.00
2019-02-05T06:05:27.287Z,0.00
2019-02-05T06:06:27.261Z,0.00
2019-02-05T06:07:27.241Z,0.00
2019-02-05T06:08:27.215Z,0.00
2019-02-05T06:09:27.208Z,0.00
2019-02-05T06:10:27.205Z,0.00
2019-02-05T06:11:27.148Z,0.00
2019-02-05T06:12:27.136Z,0.00
2019-02-05T06:13:27.110Z,0.00
2019-02-05T06:14:27.096Z,0.00
2019-02-05T06:15:27.095Z,0.00
2019-02-05T06:16:27.039Z,0.00
2019-02-05T06:17:27.023Z,0.00
2019-02-05T06:18:26.995Z,0.00
2019-02-05T06:19:26.972Z,0.00
2019-02-05T06:20:26.953Z,0.00
2019-02-05T06:21:26.940Z,0.00
2019-02-05T06:22:27.841Z,0.00
2019-02-05T06:23:26.877Z,0.00
2019-02-05T06:24:26.853Z,0.00
2019-02-05T06:25:26.837Z,0.00
2019-02-05T06:26:26.853Z,0.00
2019-02-05T06:27:26.792Z,0.00
2019-02-05T06:28:34.383Z,0.00
2019-02-05T06:29:26.745Z,0.00
2019-02-05T06:30:26.717Z,0.00
2019-02-05T06:31:26.699Z,0.00
2019-02-05T06:32:26.693Z,0.00
2019-02-05T06:33:26.652Z,0.00
2019-02-05T06:34:26.638Z,0.00
2019-02-05T06:35:26.612Z,0.00
2019-02-05T06:36:26.608Z,0.00
2019-02-05T06:37:26.581Z,0.00
2019-02-05T06:38:26.559Z,0.00
2019-02-05T06:39:26.516Z,0.00
2019-02-05T06:40:26.492Z,0.00
2019-02-05T06:41:26.471Z,4.00
2019-02-05T06:42:26.446Z,4.00
2019-02-05T06:43:26.427Z,0.00
2019-02-05T06:44:26.418Z,4.00
2019-02-05T06:45:26.383Z,4.00
2019-02-05T06:46:26.356Z,4.00
2019-02-05T06:47:26.331Z,4.00
2019-02-05T06:48:26.312Z,4.00
2019-02-05T06:49:26.308Z,8.00
2019-02-05T06:50:26.266Z,8.00
2019-02-05T06:51:26.249Z,4.00
2019-02-05T06:52:26.222Z,8.00
2019-02-05T06:53:26.199Z,8.00
2019-02-05T06:54:26.175Z,8.00
2019-02-05T06:55:26.172Z,12.00
2019-02-05T06:56:26.131Z,16.00
2019-02-05T06:57:26.184Z,16.00
2019-02-05T06:58:26.086Z,20.00
2019-02-05T06:59:26.065Z,20.00
2019-02-05T07:00:26.065Z,24.00
2019-02-05T07:01:26.022Z,24.00
2019-02-05T07:02:25.998Z,28.00
2019-02-05T07:03:25.978Z,28.00
2019-02-05T07:04:25.959Z,36.00
2019-02-05T07:05:25.946Z,36.00
2019-02-05T07:06:25.903Z,40.00
2019-02-05T07:07:25.884Z,44.00
2019-02-05T07:08:25.871Z,48.00
2019-02-05T07:09:25.842Z,56.00
2019-02-05T07:10:25.814Z,60.00
2019-02-05T07:11:25.819Z,64.00
2019-02-05T07:12:25.782Z,68.00
2019-02-05T07:13:25.747Z,68.00
2019-02-05T07:14:25.720Z,76.00
2019-02-05T07:15:25.710Z,76.00
2019-02-05T07:16:25.687Z,80.00
2019-02-05T07:17:25.675Z,84.00
2019-02-05T07:18:25.643Z,88.00
2019-02-05T07:19:25.613Z,96.00
2019-02-05T07:20:25.591Z,108.00
2019-02-05T07:21:25.572Z,108.00
2019-02-05T07:22:25.562Z,120.00
2019-02-05T07:23:25.527Z,128.00
2019-02-05T07:24:25.537Z,136.00
2019-02-05T07:25:25.507Z,144.00
2019-02-05T07:26:25.456Z,148.00
2019-02-05T07:27:25.444Z,160.00
2019-02-05T07:28:25.414Z,164.00
2019-02-05T07:29:25.404Z,168.00
2019-02-05T07:30:25.402Z,168.00
2019-02-05T07:31:25.393Z,176.00
2019-02-05T07:32:25.330Z,184.00
2019-02-05T07:33:25.306Z,192.00
2019-02-05T07:34:25.283Z,196.00
2019-02-05T07:35:25.255Z,208.00
2019-02-05T07:36:25.265Z,220.00
2019-02-05T07:37:25.207Z,236.00
2019-02-05T07:38:25.188Z,248.00
2019-02-05T07:39:27.560Z,260.00
2019-02-05T07:40:25.150Z,268.00
2019-02-05T07:41:25.121Z,280.00
2019-02-05T07:42:25.117Z,288.00
2019-02-05T07:43:25.071Z,292.00
2019-02-05T07:44:25.053Z,296.00
2019-02-05T07:45:25.040Z,300.00
2019-02-05T07:46:25.010Z,308.00
2019-02-05T07:47:24.984Z,324.00
2019-02-05T07:48:25.846Z,332.00
2019-02-05T07:49:24.940Z,352.00
2019-02-05T07:50:24.916Z,372.00
2019-02-05T07:51:24.933Z,380.00
2019-02-05T07:52:24.869Z,400.00
2019-02-05T07:53:24.849Z,424.00
2019-02-05T07:54:24.826Z,416.00
2019-02-05T07:55:24.807Z,400.00
2019-02-05T07:56:24.790Z,420.00
2019-02-05T07:57:24.776Z,440.00
2019-02-05T07:58:24.740Z,456.00
2019-02-05T07:59:24.719Z,484.00
2019-02-05T08:00:24.693Z,476.00
2019-02-05T08:01:24.670Z,488.00
2019-02-05T08:02:24.665Z,516.00
2019-02-05T08:03:24.625Z,564.00
2019-02-05T08:04:24.605Z,600.00
2019-02-05T08:05:24.591Z,588.00
2019-02-05T08:06:24.562Z,600.00
2019-02-05T08:07:24.548Z,628.00
2019-02-05T08:08:24.529Z,644.00
2019-02-05T08:09:24.490Z,680.00
2019-02-05T08:10:24.467Z,744.00
2019-02-05T08:11:24.463Z,752.00
2019-02-05T08:12:24.423Z,720.00
2019-02-05T08:13:24.403Z,744.00
2019-02-05T08:14:24.384Z,764.00
2019-02-05T08:15:24.357Z,776.00
2019-02-05T08:16:24.352Z,776.00
2019-02-05T08:17:24.318Z,792.00
2019-02-05T08:18:24.291Z,768.00
2019-02-05T08:19:24.275Z,800.00
2019-02-05T08:20:24.253Z,840.00
2019-02-05T08:21:24.243Z,872.00
2019-02-05T08:22:24.206Z,872.00
2019-02-05T08:23:24.184Z,872.00
2019-02-05T08:24:24.156Z,908.00
2019-02-05T08:25:24.151Z,920.00
2019-02-05T08:26:24.132Z,876.00
2019-02-05T08:27:24.097Z,924.00
2019-02-05T08:28:24.091Z,976.00
2019-02-05T08:29:24.045Z,1008.00
2019-02-05T08:30:24.020Z,1032.00
2019-02-05T08:31:24.004Z,1048.00
2019-02-05T08:32:23.998Z,1068.00
2019-02-05T08:33:23.954Z,1060.00
2019-02-05T08:34:23.940Z,1040.00
2019-02-05T08:35:23.915Z,1088.00
2019-02-05T08:36:23.899Z,1116.00
2019-02-05T08:37:23.870Z,1132.00
2019-02-05T08:38:23.866Z,1124.00
2019-02-05T08:39:23.820Z,1152.00
2019-02-05T08:40:23.801Z,1180.00
2019-02-05T08:41:23.779Z,1164.00
2019-02-05T08:42:23.774Z,1124.00
2019-02-05T08:43:23.750Z,1156.00
2019-02-05T08:44:23.708Z,1288.00
2019-02-05T08:45:23.687Z,1384.00
2019-02-05T08:46:23.685Z,1412.00
2019-02-05T08:47:23.650Z,1392.00
2019-02-05T08:48:23.738Z,1408.00
2019-02-05T08:49:23.596Z,1532.00
2019-02-05T08:50:23.588Z,1724.00
2019-02-05T08:51:23.567Z,1824.00
2019-02-05T08:52:23.538Z,1792.00
2019-02-05T08:53:23.522Z,1768.00
2019-02-05T08:54:23.656Z,1680.00
2019-02-05T08:55:23.490Z,1712.00
2019-02-05T08:56:23.452Z,1848.00
2019-02-05T08:57:23.423Z,1872.00
2019-02-05T08:58:30.748Z,1868.00
2019-02-05T08:59:23.377Z,1868.00
2019-02-05T09:00:23.354Z,1848.00
2019-02-05T09:01:23.339Z,1784.00
2019-02-05T09:02:23.310Z,1768.00
2019-02-05T09:03:23.295Z,1756.00
2019-02-05T09:04:23.299Z,1860.00
2019-02-05T09:05:23.254Z,2044.00
2019-02-05T09:06:23.248Z,2104.00
2019-02-05T09:07:23.202Z,2112.00
2019-02-05T09:08:23.196Z,2180.00
2019-02-05T09:09:23.177Z,2288.00
2019-02-05T09:10:23.138Z,2228.00
2019-02-05T09:11:23.112Z,2108.00
2019-02-05T09:12:23.095Z,2144.00
2019-02-05T09:13:23.073Z,2136.00
2019-02-05T09:14:23.060Z,1980.00
2019-02-05T09:15:29.647Z,1928.00
2019-02-05T09:16:23.005Z,1876.00
2019-02-05T09:17:24.392Z,1800.00
2019-02-05T09:18:22.977Z,1812.00
2019-02-05T09:19:22.934Z,1896.00
2019-02-05T09:20:22.915Z,2024.00
2019-02-05T09:21:22.911Z,2092.00
2019-02-05T09:22:22.882Z,2180.00
2019-02-05T09:23:22.847Z,2020.00
2019-02-05T09:24:22.820Z,1952.00
2019-02-05T09:25:22.806Z,1992.00
2019-02-05T09:26:22.796Z,2008.00
2019-02-05T09:27:22.759Z,2084.00
2019-02-05T09:28:22.770Z,2124.00
2019-02-05T09:29:33.006Z,2112.00
2019-02-05T09:30:22.698Z,2028.00
2019-02-05T09:31:22.687Z,2012.00
2019-02-05T09:32:22.655Z,2064.00
2019-02-05T09:33:22.625Z,2096.00
2019-02-05T09:34:22.617Z,2200.00
2019-02-05T09:35:22.584Z,2312.00
2019-02-05T09:36:22.561Z,2460.00
2019-02-05T09:37:22.569Z,2292.00
2019-02-05T09:38:22.527Z,2228.00
2019-02-05T09:39:22.498Z,2376.00
2019-02-05T09:40:22.471Z,2656.00
2019-02-05T09:41:22.455Z,2636.00
2019-02-05T09:42:22.440Z,2492.00
2019-02-05T09:43:22.431Z,2520.00
2019-02-05T09:44:22.384Z,2680.00
2019-02-05T09:45:22.385Z,2800.00
2019-02-05T09:46:22.342Z,2880.00
2019-02-05T09:47:22.326Z,2676.00
2019-02-05T09:48:22.317Z,2544.00
2019-02-05T09:49:22.272Z,2496.00
2019-02-05T09:50:22.249Z,2484.00
2019-02-05T09:51:22.252Z,2384.00
2019-02-05T09:52:22.235Z,2464.00
2019-02-05T09:53:22.188Z,2392.00
2019-02-05T09:54:22.168Z,2476.00
2019-02-05T09:55:22.144Z,2496.00
2019-02-05T09:56:22.121Z,2592.00
2019-02-05T09:57:22.097Z,2660.00
2019-02-05T09:58:22.097Z,2512.00
2019-02-05T09:59:22.056Z,2484.00
2019-02-05T10:00:22.034Z,2496.00
2019-02-05T10:01:22.013Z,2552.00
2019-02-05T10:02:21.994Z,2556.00
2019-02-05T10:03:21.971Z,2440.00
2019-02-05T10:04:21.967Z,2556.00
2019-02-05T10:05:21.929Z,2856.00
2019-02-05T10:06:21.910Z,2824.00
2019-02-05T10:07:21.883Z,2812.00
2019-02-05T10:08:21.859Z,2988.00
2019-02-05T10:09:21.848Z,2928.00
2019-02-05T10:10:21.835Z,2848.00
2019-02-05T10:11:21.827Z,2788.00
2019-02-05T10:12:21.774Z,2852.00
2019-02-05T10:13:21.753Z,2908.00
2019-02-05T10:14:21.730Z,2864.00
2019-02-05T10:15:21.720Z,2748.00
2019-02-05T10:16:21.685Z,2668.00
2019-02-05T10:17:21.684Z,2652.00
2019-02-05T10:18:21.640Z,2804.00
2019-02-05T10:19:21.626Z,3056.00
2019-02-05T10:20:21.600Z,3004.00
2019-02-05T10:21:21.581Z,2976.00
2019-02-05T10:22:21.573Z,2960.00
2019-02-05T10:23:21.536Z,3044.00
2019-02-05T10:24:21.514Z,3148.00
2019-02-05T10:25:21.491Z,3092.00
2019-02-05T10:26:21.471Z,2944.00
2019-02-05T10:27:21.467Z,2736.00
2019-02-05T10:28:21.424Z,2816.00
2019-02-05T10:29:21.406Z,2708.00
2019-02-05T10:30:21.377Z,2568.00
2019-02-05T10:31:21.358Z,2616.00
2019-02-05T10:32:21.352Z,2564.00
2019-02-05T10:33:21.327Z,2536.00
2019-02-05T10:34:21.292Z,2592.00
2019-02-05T10:35:21.276Z,2840.00
2019-02-05T10:36:21.250Z,3000.00
2019-02-05T10:37:21.261Z,2820.00
2019-02-05T10:38:21.210Z,2956.00
2019-02-05T10:39:21.203Z,2996.00
2019-02-05T10:40:21.162Z,2728.00
2019-02-05T10:41:21.144Z,2560.00
2019-02-05T10:42:21.122Z,2476.00
2019-02-05T10:43:21.119Z,2480.00
2019-02-05T10:44:21.097Z,2648.00
2019-02-05T10:45:21.057Z,2900.00
2019-02-05T10:46:21.037Z,2776.00
2019-02-05T10:47:21.014Z,2832.00
2019-02-05T10:48:21.006Z,3052.00
2019-02-05T10:49:20.984Z,3160.00
2019-02-05T10:50:20.986Z,3192.00
2019-02-05T10:51:20.933Z,2888.00
2019-02-05T10:52:20.910Z,2724.00
2019-02-05T10:53:20.879Z,2720.00
2019-02-05T10:54:20.866Z,2868.00
2019-02-05T10:55:20.862Z,2848.00
2019-02-05T10:56:20.838Z,2932.00
2019-02-05T10:57:20.803Z,2868.00
2019-02-05T10:58:20.777Z,2856.00
2019-02-05T10:59:20.755Z,2876.00
2019-02-05T11:00:20.739Z,2836.00
2019-02-05T11:01:20.709Z,2892.00
2019-02-05T11:02:20.709Z,3100.00
2019-02-05T11:03:20.674Z,3076.00
2019-02-05T11:04:20.655Z,2936.00
2019-02-05T11:05:20.651Z,3016.00
2019-02-05T11:06:20.619Z,3164.00
2019-02-05T11:07:20.622Z,3188.00
2019-02-05T11:08:20.605Z,3136.00
2019-02-05T11:09:20.551Z,3088.00
2019-02-05T11:10:20.531Z,2968.00
2019-02-05T11:11:20.536Z,2920.00
2019-02-05T11:12:20.493Z,2904.00
2019-02-05T11:13:20.469Z,2980.00
2019-02-05T11:14:20.437Z,3092.00
2019-02-05T11:15:20.411Z,3060.00
2019-02-05T11:16:20.390Z,3152.00
2019-02-05T11:17:20.368Z,3208.00
2019-02-05T11:18:20.366Z,3308.00
2019-02-05T11:19:20.328Z,3676.00
2019-02-05T11:20:20.312Z,3828.00
2019-02-05T11:21:20.283Z,3772.00
2019-02-05T11:22:20.257Z,3772.00
2019-02-05T11:23:20.259Z,3960.00
2019-02-05T11:24:20.216Z,4052.00
2019-02-05T11:25:20.199Z,4120.00
2019-02-05T11:26:20.181Z,4212.00
2019-02-05T11:27:20.158Z,4296.00
2019-02-05T11:28:20.148Z,4284.00
2019-02-05T11:29:20.132Z,4416.00
2019-02-05T11:30:20.759Z,4504.00
2019-02-05T11:31:20.102Z,4496.00
2019-02-05T11:32:20.057Z,3976.00
2019-02-05T11:33:20.026Z,3884.00
2019-02-05T11:34:20.003Z,4176.00
2019-02-05T11:35:20.002Z,4484.00
2019-02-05T11:36:19.963Z,4264.00
2019-02-05T11:37:19.939Z,4220.00
2019-02-05T11:38:19.921Z,4124.00
2019-02-05T11:39:19.916Z,3772.00
2019-02-05T11:40:19.892Z,3808.00
2019-02-05T11:41:19.855Z,3668.00
2019-02-05T11:42:19.840Z,3512.00
2019-02-05T11:43:19.814Z,3512.00
2019-02-05T11:44:19.803Z,3644.00
2019-02-05T11:45:19.786Z,3732.00
2019-02-05T11:46:19.774Z,3388.00
2019-02-05T11:47:19.729Z,3144.00
2019-02-05T11:48:19.709Z,3096.00
2019-02-05T11:49:19.687Z,3216.00
2019-02-05T11:50:19.671Z,3272.00
2019-02-05T11:51:19.662Z,3352.00
2019-02-05T11:52:19.626Z,3504.00
2019-02-05T11:53:19.601Z,3484.00
2019-02-05T11:54:19.582Z,3432.00
2019-02-05T11:55:19.560Z,3532.00
2019-02-05T11:56:19.574Z,3680.00
2019-02-05T11:57:19.512Z,3832.00
2019-02-05T11:58:19.496Z,4072.00
2019-02-05T11:59:19.472Z,4796.00
2019-02-05T12:00:19.450Z,4252.00
2019-02-05T12:01:19.429Z,3340.00
2019-02-05T12:02:19.439Z,3828.00
2019-02-05T12:03:19.389Z,3716.00
2019-02-05T12:04:19.377Z,3312.00
2019-02-05T12:05:19.480Z,3084.00
2019-02-05T12:06:19.339Z,3144.00
2019-02-05T12:07:19.301Z,3076.00
2019-02-05T12:08:19.300Z,2740.00
2019-02-05T12:09:19.259Z,2596.00
2019-02-05T12:10:19.249Z,2720.00
2019-02-05T12:11:19.217Z,2700.00
2019-02-05T12:12:19.307Z,2404.00
2019-02-05T12:13:19.176Z,2304.00
2019-02-05T12:14:19.165Z,2288.00
2019-02-05T12:15:19.142Z,2360.00
2019-02-05T12:16:19.116Z,2616.00
2019-02-05T12:17:19.117Z,2888.00
2019-02-05T12:18:19.092Z,2972.00
2019-02-05T12:19:19.064Z,2820.00
2019-02-05T12:20:19.030Z,2816.00
2019-02-05T12:21:19.013Z,2876.00
2019-02-05T12:22:18.992Z,2892.00
2019-02-05T12:23:18.970Z,2992.00
2019-02-05T12:24:18.999Z,2956.00
2019-02-05T12:25:19.012Z,2904.00
2019-02-05T12:26:18.920Z,2880.00
2019-02-05T12:27:20.331Z,2960.00
2019-02-05T12:28:18.861Z,3148.00
2019-02-05T12:29:19.114Z,3480.00
2019-02-05T12:30:18.817Z,3356.00
2019-02-05T12:31:18.828Z,3524.00
2019-02-05T12:32:18.774Z,3460.00
2019-02-05T12:33:18.756Z,3224.00
2019-02-05T12:34:18.734Z,2940.00
2019-02-05T12:35:18.720Z,2604.00
2019-02-05T12:36:18.705Z,2164.00
2019-02-05T12:37:18.674Z,1924.00
2019-02-05T12:38:18.653Z,1752.00
2019-02-05T12:39:18.630Z,1728.00
2019-02-05T12:40:18.643Z,1848.00
2019-02-05T12:41:18.581Z,2060.00
2019-02-05T12:42:18.559Z,2352.00
2019-02-05T12:43:18.543Z,2652.00
2019-02-05T12:44:18.519Z,2668.00
2019-02-05T12:45:18.505Z,2480.00
2019-02-05T12:46:18.499Z,2524.00
2019-02-05T12:47:18.490Z,2736.00
2019-02-05T12:48:18.437Z,3032.00